createdAt,value
2023-03-29T00:01:36.903Z,100520.66
2023-03-29T00:12:41.414Z,100515.63
2023-03-29T00:21:06.310Z,100506.94
2023-03-29T00:25:27.844Z,100506.94
2023-03-29T00:28:49.473Z,100504.34
2023-03-29T00:32:34.233Z,100500.00
2023-03-29T00:40:40.403Z,100496.81
2023-03-29T00:44:39.888Z,100480.53
2023-03-29T00:48:06.764Z,100476.25
2023-03-29T00:52:01.686Z,100477.72
2023-03-29T01:03:26.506Z,100479.75
2023-03-29T01:06:27.676Z,100488.25
2023-03-29T01:09:41.141Z,100483.16
2023-03-29T01:12:41.707Z,100474.72
2023-03-29T01:15:40.375Z,100472.94
2023-03-29T01:18:31.549Z,100460.66
2023-03-29T01:21:39.306Z,100464.13
2023-03-29T01:24:59.060Z,100460.97
2023-03-29T01:28:01.783Z,100452.53
2023-03-29T01:30:52.591Z,100447.34
2023-03-29T01:34:05.824Z,100452.31
2023-03-29T01:37:06.347Z,100448.28
2023-03-29T01:40:04.086Z,100453.16
2023-03-29T01:43:12.194Z,100455.84
2023-03-29T01:46:26.246Z,100475.00
2023-03-29T01:49:51.018Z,100454.16
2023-03-29T01:59:14.740Z,100438.13
2023-03-29T02:02:23.150Z,100439.31
2023-03-29T02:07:06.704Z,100431.34
2023-03-29T02:09:52.248Z,100433.50
2023-03-29T02:13:24.145Z,100430.31
2023-03-29T02:24:25.314Z,100419.34
2023-03-29T02:31:05.770Z,100423.41
2023-03-29T02:34:09.649Z,100415.94
2023-03-29T02:37:25.697Z,100412.19
2023-03-29T02:40:26.538Z,100391.34
2023-03-29T02:44:13.616Z,100388.59
2023-03-29T02:47:42.059Z,100380.16
2023-03-29T02:50:48.926Z,100389.44
2023-03-29T02:53:37.703Z,100382.50
2023-03-29T02:57:10.818Z,100374.91
2023-03-29T03:01:23.606Z,100375.59
2023-03-29T03:05:10.358Z,100375.66
2023-03-29T03:08:29.094Z,100366.97
2023-03-29T03:11:11.422Z,100361.63
2023-03-29T03:14:01.347Z,100349.63
2023-03-29T03:44:57.871Z,100315.03
2023-03-29T03:56:07.819Z,100304.59
2023-03-29T04:00:52.051Z,100299.41
2023-03-29T04:22:14.516Z,100277.91
2023-03-29T04:25:14.359Z,100279.78
2023-03-29T04:35:01.907Z,100257.81
2023-03-29T04:38:04.900Z,100255.03
2023-03-29T04:40:54.008Z,100258.25
2023-03-29T04:44:23.057Z,100270.34
2023-03-29T04:56:09.321Z,100240.00
2023-03-29T05:11:17.586Z,100251.16
2023-03-29T05:15:00.113Z,100227.22
2023-03-29T05:18:22.458Z,100224.69
2023-03-29T05:21:37.525Z,100224.47
2023-03-29T05:24:14.750Z,100231.66
2023-03-29T05:27:01.336Z,100235.94
2023-03-29T12:08:41.425Z,100089.69
2023-03-29T12:11:30.358Z,100092.47
2023-03-29T12:15:22.045Z,100082.13
2023-03-29T16:33:42.600Z,99788.41
2023-03-29T17:46:14.468Z,99744.44
2023-03-29T19:20:49.602Z,99805.94
2023-03-29T19:28:35.321Z,99809.38
2023-03-29T19:36:49.077Z,99796.56
2023-03-29T19:51:54.541Z,99801.66
2023-03-29T21:48:54.111Z,99865.59
2023-03-29T21:50:27.108Z,99866.34
2023-03-29T21:52:55.442Z,99880.97
2023-03-29T21:55:23.683Z,99875.75
2023-03-29T21:57:53.998Z,99887.66
